New Town, North Dakota
Current Conditions -  °F | °C
As of 7:55 AM on Friday 31 Oct 2014 (Local Time) from K08D Reporting Station
Broken Clouds Broken Clouds  
Wind Chill: 11°   Ceiling: 1600
Heat Index: 23°   Visibility: 10mi
Dew Point: 23°   Wind: 14mph
Humidity: 100%   Direction: 160°SSE
Pressure: 30.38"   Gusts: NA
Location:  47.98°N, 102.49°W
Report Text: K08D 311255Z AUTO 16012KT 10SM BKN016 M05/M05 A3038 RMK AO2
Loading
Personal Weather Stations






























Interactive Weather Map
Tropical Storm Tracking
New forecast layout! Learn more

10-Day Weather Forecast

Advertisements
Track Severe Weather on mobile